sensor_id;sensor_type;location;lat;lon;timestamp;pressure;altitude;pressure_sealevel;temperature;humidity
59063;BME280;44851;45.648;9.004;2022-08-19T00:01:48;98351.78;;;20.12;65.54
59063;BME280;44851;45.648;9.004;2022-08-19T00:04:15;98346.09;;;20.15;65.37
59063;BME280;44851;45.648;9.004;2022-08-19T00:06:42;98354.88;;;20.09;65.33
59063;BME280;44851;45.648;9.004;2022-08-19T00:09:12;98356.50;;;20.10;65.83
59063;BME280;44851;45.648;9.004;2022-08-19T00:11:38;98368.13;;;20.09;65.95
59063;BME280;44851;45.648;9.004;2022-08-19T00:14:05;98370.16;;;20.07;65.68
59063;BME280;44851;45.648;9.004;2022-08-19T00:16:32;98370.16;;;20.07;65.75
59063;BME280;44851;45.648;9.004;2022-08-19T00:18:58;98377.91;;;20.09;65.94
59063;BME280;44851;45.648;9.004;2022-08-19T00:21:25;98371.13;;;19.88;66.78
59063;BME280;44851;45.648;9.004;2022-08-19T00:23:52;98358.81;;;20.00;65.65
59063;BME280;44851;45.648;9.004;2022-08-19T00:26:18;98351.06;;;20.05;66.19
59063;BME280;44851;45.648;9.004;2022-08-19T00:28:43;98348.66;;;19.97;66.36
59063;BME280;44851;45.648;9.004;2022-08-19T00:31:09;98356.97;;;20.01;66.01
59063;BME280;44851;45.648;9.004;2022-08-19T00:33:35;98351.91;;;19.99;66.24
59063;BME280;44851;45.648;9.004;2022-08-19T00:36:02;98341.44;;;19.86;66.89
59063;BME280;44851;45.648;9.004;2022-08-19T00:38:29;98333.06;;;19.89;66.80
59063;BME280;44851;45.648;9.004;2022-08-19T00:40:55;98324.28;;;19.95;66.02
59063;BME280;44851;45.648;9.004;2022-08-19T00:43:24;98324.03;;;19.96;65.78
59063;BME280;44851;45.648;9.004;2022-08-19T00:45:50;98330.69;;;19.81;66.37
59063;BME280;44851;45.648;9.004;2022-08-19T00:48:17;98347.03;;;19.96;66.40
59063;BME280;44851;45.648;9.004;2022-08-19T00:50:43;98366.31;;;19.78;66.47
59063;BME280;44851;45.648;9.004;2022-08-19T00:53:11;98360.22;;;19.78;66.11
59063;BME280;44851;45.648;9.004;2022-08-19T00:55:38;98359.03;;;19.73;66.93
59063;BME280;44851;45.648;9.004;2022-08-19T00:58:08;98359.25;;;19.97;66.18
59063;BME280;44851;45.648;9.004;2022-08-19T01:00:36;98358.09;;;19.86;65.79
59063;BME280;44851;45.648;9.004;2022-08-19T01:03:10;98352.44;;;19.83;66.22
59063;BME280;44851;45.648;9.004;2022-08-19T01:05:36;98341.34;;;19.99;66.21
59063;BME280;44851;45.648;9.004;2022-08-19T01:08:05;98345.69;;;19.87;66.64
59063;BME280;44851;45.648;9.004;2022-08-19T01:10:35;98337.75;;;19.87;66.51
59063;BME280;44851;45.648;9.004;2022-08-19T01:13:02;98323.72;;;19.86;66.48
59063;BME280;44851;45.648;9.004;2022-08-19T01:15:40;98322.34;;;19.84;66.26
59063;BME280;44851;45.648;9.004;2022-08-19T01:18:10;98319.06;;;19.82;66.37
59063;BME280;44851;45.648;9.004;2022-08-19T01:20:37;98315.19;;;19.84;66.53
59063;BME280;44851;45.648;9.004;2022-08-19T01:23:03;98320.16;;;19.74;66.79
59063;BME280;44851;45.648;9.004;2022-08-19T01:25:36;98318.25;;;19.81;66.41
59063;BME280;44851;45.648;9.004;2022-08-19T01:28:06;98323.38;;;19.76;66.72
59063;BME280;44851;45.648;9.004;2022-08-19T01:30:34;98315.97;;;19.66;66.93
59063;BME280;44851;45.648;9.004;2022-08-19T01:33:01;98312.28;;;19.67;66.59
59063;BME280;44851;45.648;9.004;2022-08-19T01:35:28;98313.03;;;19.75;66.93
59063;BME280;44851;45.648;9.004;2022-08-19T01:37:59;98326.09;;;19.69;66.65
59063;BME280;44851;45.648;9.004;2022-08-19T01:40:29;98330.34;;;19.70;66.75
59063;BME280;44851;45.648;9.004;2022-08-19T01:42:56;98331.44;;;19.56;66.61
59063;BME280;44851;45.648;9.004;2022-08-19T01:45:23;98332.69;;;19.54;66.89
59063;BME280;44851;45.648;9.004;2022-08-19T01:47:49;98331.81;;;19.60;67.11
59063;BME280;44851;45.648;9.004;2022-08-19T01:50:14;98319.25;;;19.55;67.22
59063;BME280;44851;45.648;9.004;2022-08-19T01:52:42;98324.75;;;19.54;67.29
59063;BME280;44851;45.648;9.004;2022-08-19T01:55:15;98319.13;;;19.43;67.69
59063;BME280;44851;45.648;9.004;2022-08-19T01:57:44;98317.28;;;19.44;67.87
59063;BME280;44851;45.648;9.004;2022-08-19T02:00:13;98315.66;;;19.43;67.38
59063;BME280;44851;45.648;9.004;2022-08-19T02:02:41;98317.78;;;19.28;68.25
59063;BME280;44851;45.648;9.004;2022-08-19T02:05:06;98328.69;;;19.38;67.94
59063;BME280;44851;45.648;9.004;2022-08-19T02:07:33;98342.91;;;19.43;67.13
59063;BME280;44851;45.648;9.004;2022-08-19T02:10:02;98349.09;;;19.31;67.56
59063;BME280;44851;45.648;9.004;2022-08-19T02:12:28;98358.41;;;19.40;66.68
59063;BME280;44851;45.648;9.004;2022-08-19T02:14:54;98362.53;;;19.23;67.51
59063;BME280;44851;45.648;9.004;2022-08-19T02:17:19;98363.72;;;19.27;67.86
59063;BME280;44851;45.648;9.004;2022-08-19T02:19:45;98356.78;;;19.32;67.56
59063;BME280;44851;45.648;9.004;2022-08-19T02:22:10;98351.13;;;19.29;67.70
59063;BME280;44851;45.648;9.004;2022-08-19T02:24:36;98336.94;;;19.16;67.87
59063;BME280;44851;45.648;9.004;2022-08-19T02:27:01;98331.63;;;19.23;67.83
59063;BME280;44851;45.648;9.004;2022-08-19T02:29:27;98318.63;;;19.21;67.38
59063;BME280;44851;45.648;9.004;2022-08-19T02:31:52;98312.94;;;19.25;67.72
59063;BME280;44851;45.648;9.004;2022-08-19T02:34:18;98301.41;;;19.12;67.87
59063;BME280;44851;45.648;9.004;2022-08-19T02:36:44;98302.66;;;19.10;67.64
59063;BME280;44851;45.648;9.004;2022-08-19T02:39:10;98303.25;;;19.12;67.62
59063;BME280;44851;45.648;9.004;2022-08-19T02:41:35;98307.91;;;19.16;67.91
59063;BME280;44851;45.648;9.004;2022-08-19T02:44:02;98298.75;;;19.12;68.11
59063;BME280;44851;45.648;9.004;2022-08-19T02:46:32;98289.84;;;19.13;67.93
59063;BME280;44851;45.648;9.004;2022-08-19T02:49:02;98288.19;;;19.12;67.98
59063;BME280;44851;45.648;9.004;2022-08-19T02:51:34;98281.13;;;19.06;68.29
59063;BME280;44851;45.648;9.004;2022-08-19T02:54:00;98286.16;;;19.14;67.73
59063;BME280;44851;45.648;9.004;2022-08-19T02:56:26;98285.41;;;19.01;68.21
59063;BME280;44851;45.648;9.004;2022-08-19T02:58:53;98278.75;;;18.98;68.50
59063;BME280;44851;45.648;9.004;2022-08-19T03:01:24;98277.72;;;18.99;68.12
59063;BME280;44851;45.648;9.004;2022-08-19T03:03:50;98277.50;;;19.01;67.85
59063;BME280;44851;45.648;9.004;2022-08-19T03:06:16;98272.84;;;18.96;68.16
59063;BME280;44851;45.648;9.004;2022-08-19T03:08:43;98278.97;;;18.90;68.17
59063;BME280;44851;45.648;9.004;2022-08-19T03:11:19;98275.31;;;18.91;67.94
59063;BME280;44851;45.648;9.004;2022-08-19T03:13:45;98278.13;;;18.96;67.75
59063;BME280;44851;45.648;9.004;2022-08-19T03:16:12;98282.06;;;18.87;68.06
59063;BME280;44851;45.648;9.004;2022-08-19T03:18:38;98289.53;;;18.90;67.89
59063;BME280;44851;45.648;9.004;2022-08-19T03:21:06;98291.13;;;18.98;67.62
59063;BME280;44851;45.648;9.004;2022-08-19T03:23:32;98295.63;;;18.90;67.95
59063;BME280;44851;45.648;9.004;2022-08-19T03:25:57;98302.56;;;18.91;67.88
59063;BME280;44851;45.648;9.004;2022-08-19T03:28:23;98303.75;;;18.89;67.89
59063;BME280;44851;45.648;9.004;2022-08-19T03:30:59;98300.09;;;18.90;67.91
59063;BME280;44851;45.648;9.004;2022-08-19T03:33:26;98312.09;;;18.86;68.12
59063;BME280;44851;45.648;9.004;2022-08-19T03:36:09;98321.25;;;18.83;67.24
59063;BME280;44851;45.648;9.004;2022-08-19T03:38:48;98330.16;;;18.89;67.32
59063;BME280;44851;45.648;9.004;2022-08-19T03:41:20;98327.34;;;18.84;67.75
59063;BME280;44851;45.648;9.004;2022-08-19T03:43:46;98329.97;;;18.84;67.89
59063;BME280;44851;45.648;9.004;2022-08-19T03:46:17;98316.97;;;18.89;67.48
59063;BME280;44851;45.648;9.004;2022-08-19T03:48:43;98327.34;;;18.84;68.04
59063;BME280;44851;45.648;9.004;2022-08-19T03:51:20;98311.09;;;18.80;68.17
59063;BME280;44851;45.648;9.004;2022-08-19T03:53:47;98315.56;;;18.80;67.93
59063;BME280;44851;45.648;9.004;2022-08-19T03:56:13;98323.69;;;18.85;68.02
59063;BME280;44851;45.648;9.004;2022-08-19T03:58:40;98320.44;;;18.83;68.08
59063;BME280;44851;45.648;9.004;2022-08-19T04:01:15;98328.16;;;18.78;68.13
59063;BME280;44851;45.648;9.004;2022-08-19T04:03:41;98325.72;;;18.83;68.36
59063;BME280;44851;45.648;9.004;2022-08-19T04:06:11;98334.28;;;18.72;68.76
59063;BME280;44851;45.648;9.004;2022-08-19T04:08:39;98339.97;;;18.62;68.91
59063;BME280;44851;45.648;9.004;2022-08-19T04:11:09;98351.53;;;18.81;68.61
59063;BME280;44851;45.648;9.004;2022-08-19T04:13:35;98355.38;;;18.72;68.88
59063;BME280;44851;45.648;9.004;2022-08-19T04:16:00;98347.44;;;18.78;69.44
59063;BME280;44851;45.648;9.004;2022-08-19T04:18:25;98352.53;;;18.86;68.68
59063;BME280;44851;45.648;9.004;2022-08-19T04:20:51;98357.81;;;18.80;68.76
59063;BME280;44851;45.648;9.004;2022-08-19T04:23:17;98360.66;;;18.72;68.96
59063;BME280;44851;45.648;9.004;2022-08-19T04:25:44;98353.38;;;18.67;69.57
59063;BME280;44851;45.648;9.004;2022-08-19T04:28:11;98362.28;;;18.73;69.39
59063;BME280;44851;45.648;9.004;2022-08-19T04:30:47;98361.03;;;18.75;69.13
59063;BME280;44851;45.648;9.004;2022-08-19T04:33:15;98368.78;;;18.83;69.30
59063;BME280;44851;45.648;9.004;2022-08-19T04:35:44;98360.66;;;18.85;69.19
59063;BME280;44851;45.648;9.004;2022-08-19T04:38:11;98356.38;;;18.84;69.34
59063;BME280;44851;45.648;9.004;2022-08-19T04:40:41;98360.22;;;18.94;68.75
59063;BME280;44851;45.648;9.004;2022-08-19T04:43:26;98371.63;;;18.82;69.35
59063;BME280;44851;45.648;9.004;2022-08-19T04:45:52;98370.81;;;18.88;69.03
59063;BME280;44851;45.648;9.004;2022-08-19T04:48:18;98374.44;;;18.93;68.80
59063;BME280;44851;45.648;9.004;2022-08-19T04:50:54;98371.41;;;18.97;68.82
59063;BME280;44851;45.648;9.004;2022-08-19T04:53:27;98365.72;;;18.93;68.83
59063;BME280;44851;45.648;9.004;2022-08-19T04:55:54;98366.72;;;18.85;69.10
59063;BME280;44851;45.648;9.004;2022-08-19T04:58:20;98378.28;;;18.91;69.46
59063;BME280;44851;45.648;9.004;2022-08-19T05:00:45;98380.13;;;18.90;69.38
59063;BME280;44851;45.648;9.004;2022-08-19T05:03:11;98383.97;;;18.94;69.27
59063;BME280;44851;45.648;9.004;2022-08-19T05:05:40;98400.38;;;19.10;68.79
59063;BME280;44851;45.648;9.004;2022-08-19T05:08:06;98419.13;;;18.95;69.08
59063;BME280;44851;45.648;9.004;2022-08-19T05:10:35;98420.78;;;18.83;69.68
59063;BME280;44851;45.648;9.004;2022-08-19T05:13:00;98420.97;;;18.75;70.46
59063;BME280;44851;45.648;9.004;2022-08-19T05:15:26;98415.47;;;18.69;70.96
59063;BME280;44851;45.648;9.004;2022-08-19T05:17:51;98421.78;;;18.68;70.69
59063;BME280;44851;45.648;9.004;2022-08-19T05:20:37;98421.75;;;18.75;71.10
59063;BME280;44851;45.648;9.004;2022-08-19T05:23:21;98420.75;;;18.69;71.39
59063;BME280;44851;45.648;9.004;2022-08-19T05:25:46;98431.34;;;18.83;70.97
59063;BME280;44851;45.648;9.004;2022-08-19T05:28:12;98436.19;;;18.86;71.33
59063;BME280;44851;45.648;9.004;2022-08-19T05:30:37;98444.91;;;19.00;70.99
59063;BME280;44851;45.648;9.004;2022-08-19T05:33:03;98456.53;;;18.92;70.87
59063;BME280;44851;45.648;9.004;2022-08-19T05:35:28;98459.72;;;19.01;70.90
59063;BME280;44851;45.648;9.004;2022-08-19T05:37:53;98462.19;;;19.02;70.95
59063;BME280;44851;45.648;9.004;2022-08-19T05:40:19;98465.41;;;19.11;70.87
59063;BME280;44851;45.648;9.004;2022-08-19T05:42:45;98460.16;;;18.98;70.65
59063;BME280;44851;45.648;9.004;2022-08-19T05:45:11;98450.59;;;19.03;70.84
59063;BME280;44851;45.648;9.004;2022-08-19T05:47:36;98455.88;;;19.03;71.10
59063;BME280;44851;45.648;9.004;2022-08-19T05:50:03;98468.84;;;19.11;70.84
59063;BME280;44851;45.648;9.004;2022-08-19T05:52:29;98473.94;;;19.13;70.83
59063;BME280;44851;45.648;9.004;2022-08-19T05:54:55;98468.66;;;19.13;70.76
59063;BME280;44851;45.648;9.004;2022-08-19T05:57:20;98460.53;;;19.14;71.31
59063;BME280;44851;45.648;9.004;2022-08-19T05:59:46;98460.53;;;19.14;71.86
59063;BME280;44851;45.648;9.004;2022-08-19T06:02:13;98465.81;;;19.14;72.40
59063;BME280;44851;45.648;9.004;2022-08-19T06:04:39;98473.13;;;19.12;72.77
59063;BME280;44851;45.648;9.004;2022-08-19T06:07:07;98467.63;;;19.20;72.25
59063;BME280;44851;45.648;9.004;2022-08-19T06:09:33;98469.03;;;19.30;72.01
59063;BME280;44851;45.648;9.004;2022-08-19T06:11:59;98470.84;;;19.29;72.80
59063;BME280;44851;45.648;9.004;2022-08-19T06:14:28;98469.00;;;19.36;72.25
59063;BME280;44851;45.648;9.004;2022-08-19T06:16:54;98464.31;;;19.32;72.43
59063;BME280;44851;45.648;9.004;2022-08-19T06:19:22;98472.63;;;19.42;72.41
59063;BME280;44851;45.648;9.004;2022-08-19T06:21:50;98464.47;;;19.50;72.25
59063;BME280;44851;45.648;9.004;2022-08-19T06:24:19;98469.13;;;19.61;71.79
59063;BME280;44851;45.648;9.004;2022-08-19T06:26:46;98476.22;;;19.54;72.25
59063;BME280;44851;45.648;9.004;2022-08-19T06:29:14;98469.09;;;19.68;72.19
59063;BME280;44851;45.648;9.004;2022-08-19T06:31:43;98472.56;;;19.62;72.30
59063;BME280;44851;45.648;9.004;2022-08-19T06:34:09;98470.94;;;19.67;72.36
59063;BME280;44851;45.648;9.004;2022-08-19T06:36:38;98483.72;;;19.70;72.72
59063;BME280;44851;45.648;9.004;2022-08-19T06:39:07;98480.47;;;19.68;73.51
59063;BME280;44851;45.648;9.004;2022-08-19T06:41:37;98486.72;;;19.81;72.70
59063;BME280;44851;45.648;9.004;2022-08-19T06:44:04;98494.00;;;19.85;72.06
59063;BME280;44851;45.648;9.004;2022-08-19T06:46:30;98494.81;;;19.86;72.90
59063;BME280;44851;45.648;9.004;2022-08-19T06:48:56;98492.75;;;19.94;72.00
59063;BME280;44851;45.648;9.004;2022-08-19T06:51:22;98496.72;;;20.10;71.99
59063;BME280;44851;45.648;9.004;2022-08-19T06:53:50;98498.75;;;20.15;71.45
59063;BME280;44851;45.648;9.004;2022-08-19T06:56:19;98499.53;;;20.15;72.21
59063;BME280;44851;45.648;9.004;2022-08-19T06:58:45;98491.09;;;20.32;70.95
59063;BME280;44851;45.648;9.004;2022-08-19T07:01:12;98500.22;;;20.36;71.56
59063;BME280;44851;45.648;9.004;2022-08-19T07:03:38;98497.28;;;20.50;71.16
59063;BME280;44851;45.648;9.004;2022-08-19T07:06:10;98503.53;;;20.56;70.44
59063;BME280;44851;45.648;9.004;2022-08-19T07:08:36;98498.16;;;20.69;69.65
59063;BME280;44851;45.648;9.004;2022-08-19T07:11:05;98494.63;;;20.75;71.14
59063;BME280;44851;45.648;9.004;2022-08-19T07:13:32;98487.50;;;20.76;69.25
59063;BME280;44851;45.648;9.004;2022-08-19T07:16:06;98494.91;;;20.67;68.61
59063;BME280;44851;45.648;9.004;2022-08-19T07:18:32;98502.97;;;20.54;69.29
59063;BME280;44851;45.648;9.004;2022-08-19T07:21:19;98494.69;;;20.69;68.36
59063;BME280;44851;45.648;9.004;2022-08-19T07:23:46;98488.53;;;20.75;69.09
59063;BME280;44851;45.648;9.004;2022-08-19T07:26:18;98493.81;;;20.75;67.93
59063;BME280;44851;45.648;9.004;2022-08-19T07:28:45;98492.56;;;20.77;67.37
59063;BME280;44851;45.648;9.004;2022-08-19T07:31:13;98494.94;;;20.86;68.14
59063;BME280;44851;45.648;9.004;2022-08-19T07:33:40;98492.56;;;20.77;68.08
59063;BME280;44851;45.648;9.004;2022-08-19T07:36:09;98498.31;;;20.74;67.07
59063;BME280;44851;45.648;9.004;2022-08-19T07:38:37;98495.88;;;20.73;67.69
59063;BME280;44851;45.648;9.004;2022-08-19T07:41:03;98504.56;;;20.80;67.09
59063;BME280;44851;45.648;9.004;2022-08-19T07:43:29;98511.16;;;20.96;67.79
59063;BME280;44851;45.648;9.004;2022-08-19T07:45:55;98515.50;;;21.09;67.29
59063;BME280;44851;45.648;9.004;2022-08-19T07:48:25;98516.66;;;21.19;67.15
59063;BME280;44851;45.648;9.004;2022-08-19T07:50:52;98515.34;;;21.28;66.98
59063;BME280;44851;45.648;9.004;2022-08-19T07:53:18;98524.16;;;21.41;65.60
59063;BME280;44851;45.648;9.004;2022-08-19T07:55:44;98517.88;;;21.42;65.79
59063;BME280;44851;45.648;9.004;2022-08-19T07:58:12;98523.28;;;21.65;66.46
59063;BME280;44851;45.648;9.004;2022-08-19T08:00:38;98527.41;;;21.79;64.08
59063;BME280;44851;45.648;9.004;2022-08-19T08:03:03;98515.63;;;21.75;63.91
59063;BME280;44851;45.648;9.004;2022-08-19T08:05:29;98521.81;;;21.69;63.69
59063;BME280;44851;45.648;9.004;2022-08-19T08:08:13;98526.13;;;21.82;63.22
59063;BME280;44851;45.648;9.004;2022-08-19T08:10:57;98531.66;;;21.99;63.44
59063;BME280;44851;45.648;9.004;2022-08-19T08:13:24;98538.44;;;21.76;63.27
59063;BME280;44851;45.648;9.004;2022-08-19T08:15:49;98545.75;;;21.81;63.42
59063;BME280;44851;45.648;9.004;2022-08-19T08:18:15;98541.06;;;22.43;62.43
59063;BME280;44851;45.648;9.004;2022-08-19T08:20:40;98546.66;;;22.65;60.55
59063;BME280;44851;45.648;9.004;2022-08-19T08:23:06;98546.91;;;22.75;60.15
59063;BME280;44851;45.648;9.004;2022-08-19T08:25:49;98552.94;;;22.52;60.91
59063;BME280;44851;45.648;9.004;2022-08-19T08:28:16;98559.56;;;22.20;60.50
59063;BME280;44851;45.648;9.004;2022-08-19T08:30:42;98553.91;;;22.16;59.78
59063;BME280;44851;45.648;9.004;2022-08-19T08:33:09;98552.53;;;22.25;60.88
59063;BME280;44851;45.648;9.004;2022-08-19T08:35:35;98549.44;;;22.28;60.55
59063;BME280;44851;45.648;9.004;2022-08-19T08:38:01;98550.28;;;22.41;60.62
59063;BME280;44851;45.648;9.004;2022-08-19T08:43:27;98566.28;;;22.22;61.73
59063;BME280;44851;45.648;9.004;2022-08-19T08:46:09;98568.41;;;22.44;61.30
59063;BME280;44851;45.648;9.004;2022-08-19T08:48:46;98571.22;;;22.49;61.05
59063;BME280;44851;45.648;9.004;2022-08-19T08:51:20;98563.53;;;22.59;60.17
59063;BME280;44851;45.648;9.004;2022-08-19T08:53:49;98563.19;;;22.79;59.22
59063;BME280;44851;45.648;9.004;2022-08-19T08:56:16;98565.66;;;22.80;59.38
59063;BME280;44851;45.648;9.004;2022-08-19T08:59:05;98563.91;;;22.98;58.74
59063;BME280;44851;45.648;9.004;2022-08-19T09:01:35;98560.69;;;23.07;58.28
59063;BME280;44851;45.648;9.004;2022-08-19T09:04:04;98558.16;;;23.24;58.77
59063;BME280;44851;45.648;9.004;2022-08-19T09:06:46;98546.00;;;23.52;55.71
59063;BME280;44851;45.648;9.004;2022-08-19T09:09:24;98555.44;;;23.71;56.97
59063;BME280;44851;45.648;9.004;2022-08-19T09:12:27;98556.19;;;23.55;57.27
59063;BME280;44851;45.648;9.004;2022-08-19T09:15:15;98549.56;;;23.57;54.42
59063;BME280;44851;45.648;9.004;2022-08-19T09:17:43;98556.69;;;23.69;54.75
59063;BME280;44851;45.648;9.004;2022-08-19T09:22:40;98554.78;;;24.04;53.56
59063;BME280;44851;45.648;9.004;2022-08-19T09:25:09;98556.53;;;23.99;53.65
59063;BME280;44851;45.648;9.004;2022-08-19T09:27:37;98554.22;;;23.91;53.11
59063;BME280;44851;45.648;9.004;2022-08-19T09:30:04;98557.91;;;23.89;53.04
59063;BME280;44851;45.648;9.004;2022-08-19T09:32:30;98551.53;;;24.02;53.48
59063;BME280;44851;45.648;9.004;2022-08-19T09:34:55;98552.59;;;23.89;51.66
59063;BME280;44851;45.648;9.004;2022-08-19T09:37:23;98560.72;;;23.95;53.84
59063;BME280;44851;45.648;9.004;2022-08-19T09:39:49;98559.09;;;23.94;52.44
59063;BME280;44851;45.648;9.004;2022-08-19T09:42:14;98562.91;;;23.98;53.35
59063;BME280;44851;45.648;9.004;2022-08-19T09:44:40;98563.88;;;23.68;53.90
59063;BME280;44851;45.648;9.004;2022-08-19T09:47:08;98565.03;;;23.72;55.73
59063;BME280;44851;45.648;9.004;2022-08-19T09:49:34;98561.63;;;23.88;55.20
59063;BME280;44851;45.648;9.004;2022-08-19T09:52:00;98572.06;;;23.78;54.86
59063;BME280;44851;45.648;9.004;2022-08-19T09:54:26;98576.69;;;23.95;56.61
59063;BME280;44851;45.648;9.004;2022-08-19T09:56:53;98576.69;;;23.95;55.34
59063;BME280;44851;45.648;9.004;2022-08-19T09:59:18;98579.81;;;23.92;54.65
59063;BME280;44851;45.648;9.004;2022-08-19T10:01:44;98569.88;;;23.87;54.03
59063;BME280;44851;45.648;9.004;2022-08-19T10:04:09;98573.47;;;23.93;55.65
59063;BME280;44851;45.648;9.004;2022-08-19T10:06:37;98565.09;;;23.89;54.02
59063;BME280;44851;45.648;9.004;2022-08-19T10:09:03;98553.19;;;23.92;54.81
59063;BME280;44851;45.648;9.004;2022-08-19T10:11:32;98554.47;;;24.18;53.09
59063;BME280;44851;45.648;9.004;2022-08-19T10:13:57;98553.22;;;24.37;54.27
59063;BME280;44851;45.648;9.004;2022-08-19T10:16:23;98546.59;;;24.39;52.53
59063;BME280;44851;45.648;9.004;2022-08-19T10:18:50;98541.00;;;24.70;52.27
59063;BME280;44851;45.648;9.004;2022-08-19T10:21:19;98545.88;;;24.89;52.33
59063;BME280;44851;45.648;9.004;2022-08-19T10:23:48;98541.81;;;24.70;51.22
59063;BME280;44851;45.648;9.004;2022-08-19T10:26:19;98530.34;;;24.86;49.90
59063;BME280;44851;45.648;9.004;2022-08-19T10:28:45;98525.66;;;24.94;51.83
59063;BME280;44851;45.648;9.004;2022-08-19T10:31:14;98530.97;;;25.10;50.09
59063;BME280;44851;45.648;9.004;2022-08-19T10:33:40;98527.88;;;25.18;49.58
59063;BME280;44851;45.648;9.004;2022-08-19T10:36:13;98527.78;;;25.30;49.36
59063;BME280;44851;45.648;9.004;2022-08-19T10:38:43;98529.84;;;25.23;48.59
59063;BME280;44851;45.648;9.004;2022-08-19T10:41:16;98517.88;;;25.48;48.97
59063;BME280;44851;45.648;9.004;2022-08-19T10:43:42;98516.97;;;25.59;48.65
59063;BME280;44851;45.648;9.004;2022-08-19T10:46:09;98516.00;;;25.70;48.14
59063;BME280;44851;45.648;9.004;2022-08-19T10:48:35;98510.63;;;25.65;46.64
59063;BME280;44851;45.648;9.004;2022-08-19T10:51:01;98519.81;;;25.74;47.57
59063;BME280;44851;45.648;9.004;2022-08-19T10:53:45;98514.88;;;25.66;47.51
59063;BME280;44851;45.648;9.004;2022-08-19T10:56:10;98509.63;;;25.71;47.11
59063;BME280;44851;45.648;9.004;2022-08-19T10:58:54;98504.88;;;25.78;47.91
59063;BME280;44851;45.648;9.004;2022-08-19T11:01:21;98515.06;;;25.81;48.38
59063;BME280;44851;45.648;9.004;2022-08-19T11:03:47;98507.53;;;25.78;47.76
59063;BME280;44851;45.648;9.004;2022-08-19T11:06:12;98509.47;;;26.05;46.35
59063;BME280;44851;45.648;9.004;2022-08-19T11:08:38;98509.59;;;26.20;46.10
59063;BME280;44851;45.648;9.004;2022-08-19T11:11:04;98508.84;;;26.25;46.82
59063;BME280;44851;45.648;9.004;2022-08-19T11:13:32;98503.72;;;26.18;47.83
59063;BME280;44851;45.648;9.004;2022-08-19T11:16:11;98501.47;;;26.69;45.64
59063;BME280;44851;45.648;9.004;2022-08-19T11:18:42;98493.47;;;26.69;45.20
59063;BME280;44851;45.648;9.004;2022-08-19T11:21:39;98498.16;;;26.52;47.08
59063;BME280;44851;45.648;9.004;2022-08-19T11:24:09;98496.63;;;26.61;45.95
59063;BME280;44851;45.648;9.004;2022-08-19T11:26:36;98497.00;;;26.42;45.28
59063;BME280;44851;45.648;9.004;2022-08-19T11:29:03;98499.66;;;26.42;45.42
59063;BME280;44851;45.648;9.004;2022-08-19T11:31:31;98504.06;;;26.27;46.19
59063;BME280;44851;45.648;9.004;2022-08-19T11:33:59;98506.66;;;26.16;45.30
59063;BME280;44851;45.648;9.004;2022-08-19T11:36:25;98510.88;;;25.85;45.68
59063;BME280;44851;45.648;9.004;2022-08-19T11:38:51;98500.19;;;25.85;46.14
59063;BME280;44851;45.648;9.004;2022-08-19T11:41:19;98497.06;;;25.93;46.74
59063;BME280;44851;45.648;9.004;2022-08-19T11:43:45;98489.97;;;26.04;47.10
59063;BME280;44851;45.648;9.004;2022-08-19T11:46:12;98487.22;;;25.99;46.01
59063;BME280;44851;45.648;9.004;2022-08-19T11:48:40;98498.78;;;26.05;46.14
59063;BME280;44851;45.648;9.004;2022-08-19T11:51:09;98496.78;;;26.17;46.37
59063;BME280;44851;45.648;9.004;2022-08-19T11:53:35;98498.78;;;26.32;47.15
59063;BME280;44851;45.648;9.004;2022-08-19T11:56:01;98501.25;;;26.38;47.79
59063;BME280;44851;45.648;9.004;2022-08-19T11:58:27;98492.75;;;26.46;46.55
59063;BME280;44851;45.648;9.004;2022-08-19T12:00:54;98492.91;;;26.67;47.87
59063;BME280;44851;45.648;9.004;2022-08-19T12:03:19;98485.63;;;26.99;46.14
59063;BME280;44851;45.648;9.004;2022-08-19T12:05:45;98484.75;;;26.84;45.10
59063;BME280;44851;45.648;9.004;2022-08-19T12:08:11;98486.31;;;27.22;45.07
59063;BME280;44851;45.648;9.004;2022-08-19T12:10:38;98473.06;;;27.52;43.37
59063;BME280;44851;45.648;9.004;2022-08-19T12:13:04;98474.75;;;27.74;40.69
59063;BME280;44851;45.648;9.004;2022-08-19T12:15:29;98466.50;;;28.01;40.80
59063;BME280;44851;45.648;9.004;2022-08-19T12:17:56;98462.28;;;28.25;40.80
59063;BME280;44851;45.648;9.004;2022-08-19T12:20:23;98453.44;;;28.30;41.00
59063;BME280;44851;45.648;9.004;2022-08-19T12:22:49;98451.00;;;28.44;40.73
59063;BME280;44851;45.648;9.004;2022-08-19T12:25:15;98452.34;;;28.57;40.69
59063;BME280;44851;45.648;9.004;2022-08-19T12:27:40;98452.34;;;28.46;41.97
59063;BME280;44851;45.648;9.004;2022-08-19T12:30:08;98448.88;;;28.41;39.82
59063;BME280;44851;45.648;9.004;2022-08-19T12:32:34;98443.78;;;28.34;41.14
59063;BME280;44851;45.648;9.004;2022-08-19T12:34:59;98444.31;;;28.31;40.03
59063;BME280;44851;45.648;9.004;2022-08-19T12:37:26;98443.78;;;28.24;39.21
59063;BME280;44851;45.648;9.004;2022-08-19T12:39:51;98434.41;;;28.32;40.24
59063;BME280;44851;45.648;9.004;2022-08-19T12:42:17;98442.72;;;28.30;41.07
59063;BME280;44851;45.648;9.004;2022-08-19T12:44:43;98444.84;;;28.28;38.50
59063;BME280;44851;45.648;9.004;2022-08-19T12:47:11;98435.19;;;28.22;38.87
59063;BME280;44851;45.648;9.004;2022-08-19T12:49:37;98437.06;;;28.47;39.42
59063;BME280;44851;45.648;9.004;2022-08-19T12:52:05;98427.94;;;28.48;39.03
59063;BME280;44851;45.648;9.004;2022-08-19T12:54:33;98423.41;;;28.33;39.00
59063;BME280;44851;45.648;9.004;2022-08-19T12:56:58;98412.13;;;28.46;37.48
59063;BME280;44851;45.648;9.004;2022-08-19T12:59:25;98413.47;;;28.49;37.42
59063;BME280;44851;45.648;9.004;2022-08-19T13:01:51;98397.88;;;28.66;38.14
59063;BME280;44851;45.648;9.004;2022-08-19T13:04:17;98404.56;;;28.79;36.96
59063;BME280;44851;45.648;9.004;2022-08-19T13:06:43;98401.59;;;28.86;37.22
59063;BME280;44851;45.648;9.004;2022-08-19T13:09:09;98399.19;;;28.84;36.33
59063;BME280;44851;45.648;9.004;2022-08-19T13:11:35;98400.59;;;28.51;36.53